sensor_id;sensor_type;location;lat;lon;timestamp;P1;durP1;ratioP1;P2;durP2;ratioP2
5704;SDS011;2877;48.238;11.160;2023-02-25T00:00:28;12.27;;;5.17;;
5704;SDS011;2877;48.238;11.160;2023-02-25T00:02:58;11.13;;;5.30;;
5704;SDS011;2877;48.238;11.160;2023-02-25T00:05:24;13.10;;;5.90;;
5704;SDS011;2877;48.238;11.160;2023-02-25T00:07:50;7.87;;;5.03;;
5704;SDS011;2877;48.238;11.160;2023-02-25T00:10:15;10.53;;;5.30;;
5704;SDS011;2877;48.238;11.160;2023-02-25T00:12:41;11.00;;;5.77;;
5704;SDS011;2877;48.238;11.160;2023-02-25T00:15:08;10.60;;;5.47;;
5704;SDS011;2877;48.238;11.160;2023-02-25T00:17:34;8.73;;;5.17;;
5704;SDS011;2877;48.238;11.160;2023-02-25T00:20:03;9.73;;;4.57;;
5704;SDS011;2877;48.238;11.160;2023-02-25T00:22:33;10.43;;;5.50;;
5704;SDS011;2877;48.238;11.160;2023-02-25T00:25:00;10.43;;;5.80;;
5704;SDS011;2877;48.238;11.160;2023-02-25T00:27:27;15.40;;;7.73;;
5704;SDS011;2877;48.238;11.160;2023-02-25T00:29:53;11.37;;;6.63;;
5704;SDS011;2877;48.238;11.160;2023-02-25T00:32:18;12.00;;;5.80;;
5704;SDS011;2877;48.238;11.160;2023-02-25T00:34:45;11.57;;;5.53;;
5704;SDS011;2877;48.238;11.160;2023-02-25T00:37:11;11.27;;;5.47;;
5704;SDS011;2877;48.238;11.160;2023-02-25T00:39:37;7.33;;;3.90;;
5704;SDS011;2877;48.238;11.160;2023-02-25T00:42:09;9.40;;;5.00;;
5704;SDS011;2877;48.238;11.160;2023-02-25T00:44:35;16.43;;;5.23;;
5704;SDS011;2877;48.238;11.160;2023-02-25T00:47:01;7.13;;;3.63;;
5704;SDS011;2877;48.238;11.160;2023-02-25T00:49:27;8.27;;;3.90;;
5704;SDS011;2877;48.238;11.160;2023-02-25T00:51:53;7.07;;;4.03;;
5704;SDS011;2877;48.238;11.160;2023-02-25T00:54:20;5.57;;;3.40;;
5704;SDS011;2877;48.238;11.160;2023-02-25T00:56:45;7.33;;;3.60;;
5704;SDS011;2877;48.238;11.160;2023-02-25T00:59:11;6.33;;;3.77;;
5704;SDS011;2877;48.238;11.160;2023-02-25T01:01:37;7.93;;;4.70;;
5704;SDS011;2877;48.238;11.160;2023-02-25T01:04:03;8.03;;;4.03;;
5704;SDS011;2877;48.238;11.160;2023-02-25T01:06:29;8.33;;;4.00;;
5704;SDS011;2877;48.238;11.160;2023-02-25T01:08:57;6.87;;;4.03;;
5704;SDS011;2877;48.238;11.160;2023-02-25T01:11:25;12.50;;;4.00;;
5704;SDS011;2877;48.238;11.160;2023-02-25T01:13:53;5.60;;;3.67;;
5704;SDS011;2877;48.238;11.160;2023-02-25T01:16:23;5.73;;;3.77;;
5704;SDS011;2877;48.238;11.160;2023-02-25T01:18:51;7.60;;;4.30;;
5704;SDS011;2877;48.238;11.160;2023-02-25T01:21:19;7.00;;;4.27;;
5704;SDS011;2877;48.238;11.160;2023-02-25T01:23:53;7.30;;;4.13;;
5704;SDS011;2877;48.238;11.160;2023-02-25T01:26:22;10.57;;;3.90;;
5704;SDS011;2877;48.238;11.160;2023-02-25T01:28:48;7.30;;;3.53;;
5704;SDS011;2877;48.238;11.160;2023-02-25T01:31:18;7.47;;;3.90;;
5704;SDS011;2877;48.238;11.160;2023-02-25T01:33:49;10.83;;;4.90;;
5704;SDS011;2877;48.238;11.160;2023-02-25T01:36:15;9.43;;;3.30;;
5704;SDS011;2877;48.238;11.160;2023-02-25T01:38:41;6.23;;;3.70;;
5704;SDS011;2877;48.238;11.160;2023-02-25T01:41:06;4.07;;;3.10;;
5704;SDS011;2877;48.238;11.160;2023-02-25T01:43:32;6.67;;;4.00;;
5704;SDS011;2877;48.238;11.160;2023-02-25T01:45:58;5.33;;;2.90;;
5704;SDS011;2877;48.238;11.160;2023-02-25T01:48:25;4.73;;;3.07;;
5704;SDS011;2877;48.238;11.160;2023-02-25T01:50:57;13.80;;;4.90;;
5704;SDS011;2877;48.238;11.160;2023-02-25T01:53:36;3.80;;;2.93;;
5704;SDS011;2877;48.238;11.160;2023-02-25T01:56:09;6.20;;;2.90;;
5704;SDS011;2877;48.238;11.160;2023-02-25T01:58:36;5.00;;;2.90;;
5704;SDS011;2877;48.238;11.160;2023-02-25T02:01:03;5.77;;;3.03;;
5704;SDS011;2877;48.238;11.160;2023-02-25T02:03:35;1.63;;;1.53;;
5704;SDS011;2877;48.238;11.160;2023-02-25T02:06:06;2.90;;;2.37;;
5704;SDS011;2877;48.238;11.160;2023-02-25T02:08:36;1.53;;;1.43;;
5704;SDS011;2877;48.238;11.160;2023-02-25T02:11:04;5.00;;;2.43;;
5704;SDS011;2877;48.238;11.160;2023-02-25T02:13:30;3.77;;;2.20;;
5704;SDS011;2877;48.238;11.160;2023-02-25T02:22:08;5.13;;;3.53;;
5704;SDS011;2877;48.238;11.160;2023-02-25T02:27:59;3.20;;;2.37;;
5704;SDS011;2877;48.238;11.160;2023-02-25T02:31:33;2.57;;;2.03;;
5704;SDS011;2877;48.238;11.160;2023-02-25T02:33:45;2.37;;;2.17;;
5704;SDS011;2877;48.238;11.160;2023-02-25T02:36:29;5.90;;;2.53;;
5704;SDS011;2877;48.238;11.160;2023-02-25T02:39:13;2.73;;;2.50;;
5704;SDS011;2877;48.238;11.160;2023-02-25T02:42:04;2.60;;;2.33;;
5704;SDS011;2877;48.238;11.160;2023-02-25T02:44:37;2.73;;;2.53;;
5704;SDS011;2877;48.238;11.160;2023-02-25T02:47:16;6.70;;;2.53;;
5704;SDS011;2877;48.238;11.160;2023-02-25T02:49:48;3.70;;;2.63;;
5704;SDS011;2877;48.238;11.160;2023-02-25T02:52:21;3.77;;;2.40;;
5704;SDS011;2877;48.238;11.160;2023-02-25T02:54:52;4.60;;;2.77;;
5704;SDS011;2877;48.238;11.160;2023-02-25T02:57:23;3.17;;;2.23;;
5704;SDS011;2877;48.238;11.160;2023-02-25T03:02:21;3.17;;;2.43;;
5704;SDS011;2877;48.238;11.160;2023-02-25T03:04:52;2.80;;;2.50;;
5704;SDS011;2877;48.238;11.160;2023-02-25T03:07:23;4.87;;;2.80;;
5704;SDS011;2877;48.238;11.160;2023-02-25T03:09:50;3.60;;;2.80;;
5704;SDS011;2877;48.238;11.160;2023-02-25T03:12:17;4.10;;;3.00;;
5704;SDS011;2877;48.238;11.160;2023-02-25T03:14:43;3.90;;;2.97;;
5704;SDS011;2877;48.238;11.160;2023-02-25T03:19:47;7.00;;;3.77;;
5704;SDS011;2877;48.238;11.160;2023-02-25T03:22:27;6.40;;;3.53;;
5704;SDS011;2877;48.238;11.160;2023-02-25T03:25:03;6.70;;;4.10;;
5704;SDS011;2877;48.238;11.160;2023-02-25T03:27:52;6.67;;;4.30;;
5704;SDS011;2877;48.238;11.160;2023-02-25T03:33:21;6.03;;;3.87;;
5704;SDS011;2877;48.238;11.160;2023-02-25T03:36:12;6.00;;;3.83;;
5704;SDS011;2877;48.238;11.160;2023-02-25T03:38:49;7.30;;;5.03;;
5704;SDS011;2877;48.238;11.160;2023-02-25T03:41:17;8.00;;;4.50;;
5704;SDS011;2877;48.238;11.160;2023-02-25T03:43:49;8.87;;;4.67;;
5704;SDS011;2877;48.238;11.160;2023-02-25T03:46:19;8.53;;;4.70;;
5704;SDS011;2877;48.238;11.160;2023-02-25T03:48:46;7.87;;;4.70;;
5704;SDS011;2877;48.238;11.160;2023-02-25T03:51:14;8.27;;;4.90;;
5704;SDS011;2877;48.238;11.160;2023-02-25T03:53:44;7.63;;;5.30;;
5704;SDS011;2877;48.238;11.160;2023-02-25T03:56:10;8.40;;;5.10;;
5704;SDS011;2877;48.238;11.160;2023-02-25T03:58:36;10.80;;;5.97;;
5704;SDS011;2877;48.238;11.160;2023-02-25T04:01:08;11.67;;;6.07;;
5704;SDS011;2877;48.238;11.160;2023-02-25T04:04:00;9.40;;;5.70;;
5704;SDS011;2877;48.238;11.160;2023-02-25T04:06:25;12.60;;;5.70;;
5704;SDS011;2877;48.238;11.160;2023-02-25T04:08:51;15.90;;;6.20;;
5704;SDS011;2877;48.238;11.160;2023-02-25T04:11:16;11.00;;;5.70;;
5704;SDS011;2877;48.238;11.160;2023-02-25T04:13:42;11.10;;;6.10;;
5704;SDS011;2877;48.238;11.160;2023-02-25T04:16:07;10.00;;;5.93;;
5704;SDS011;2877;48.238;11.160;2023-02-25T04:18:33;11.67;;;6.50;;
5704;SDS011;2877;48.238;11.160;2023-02-25T04:20:59;9.00;;;5.30;;
5704;SDS011;2877;48.238;11.160;2023-02-25T04:23:24;12.83;;;6.37;;
5704;SDS011;2877;48.238;11.160;2023-02-25T04:25:50;12.30;;;6.13;;
5704;SDS011;2877;48.238;11.160;2023-02-25T04:28:15;11.27;;;6.33;;
5704;SDS011;2877;48.238;11.160;2023-02-25T04:30:41;12.07;;;6.10;;
5704;SDS011;2877;48.238;11.160;2023-02-25T04:33:08;18.57;;;7.27;;
5704;SDS011;2877;48.238;11.160;2023-02-25T04:35:37;13.80;;;6.80;;
5704;SDS011;2877;48.238;11.160;2023-02-25T04:38:02;12.23;;;6.43;;
5704;SDS011;2877;48.238;11.160;2023-02-25T04:40:28;12.77;;;6.63;;
5704;SDS011;2877;48.238;11.160;2023-02-25T04:42:53;13.87;;;7.40;;
5704;SDS011;2877;48.238;11.160;2023-02-25T04:45:19;9.67;;;5.80;;
5704;SDS011;2877;48.238;11.160;2023-02-25T04:47:49;14.80;;;6.87;;
5704;SDS011;2877;48.238;11.160;2023-02-25T04:50:16;14.07;;;7.20;;
5704;SDS011;2877;48.238;11.160;2023-02-25T04:52:42;15.10;;;7.50;;
5704;SDS011;2877;48.238;11.160;2023-02-25T04:55:08;14.20;;;7.23;;
5704;SDS011;2877;48.238;11.160;2023-02-25T04:57:34;13.43;;;7.20;;
5704;SDS011;2877;48.238;11.160;2023-02-25T05:00:06;12.20;;;7.60;;
5704;SDS011;2877;48.238;11.160;2023-02-25T05:02:34;15.07;;;7.33;;
5704;SDS011;2877;48.238;11.160;2023-02-25T05:05:00;15.27;;;7.37;;
5704;SDS011;2877;48.238;11.160;2023-02-25T05:07:25;13.23;;;6.80;;
5704;SDS011;2877;48.238;11.160;2023-02-25T05:09:51;16.97;;;7.93;;
5704;SDS011;2877;48.238;11.160;2023-02-25T05:12:16;12.97;;;7.17;;
5704;SDS011;2877;48.238;11.160;2023-02-25T05:14:42;16.00;;;7.40;;
5704;SDS011;2877;48.238;11.160;2023-02-25T05:17:07;11.90;;;5.13;;
5704;SDS011;2877;48.238;11.160;2023-02-25T05:19:33;15.00;;;8.20;;
5704;SDS011;2877;48.238;11.160;2023-02-25T05:21:59;13.37;;;6.73;;
5704;SDS011;2877;48.238;11.160;2023-02-25T05:24:24;14.60;;;8.03;;
5704;SDS011;2877;48.238;11.160;2023-02-25T05:26:50;10.90;;;6.37;;
5704;SDS011;2877;48.238;11.160;2023-02-25T05:29:16;14.67;;;8.03;;
5704;SDS011;2877;48.238;11.160;2023-02-25T05:31:42;13.40;;;7.30;;
5704;SDS011;2877;48.238;11.160;2023-02-25T05:34:07;12.50;;;6.70;;
5704;SDS011;2877;48.238;11.160;2023-02-25T05:36:33;12.93;;;6.73;;
5704;SDS011;2877;48.238;11.160;2023-02-25T05:38:58;11.50;;;6.33;;
5704;SDS011;2877;48.238;11.160;2023-02-25T05:41:27;10.60;;;6.07;;
5704;SDS011;2877;48.238;11.160;2023-02-25T05:43:53;13.43;;;4.87;;
5704;SDS011;2877;48.238;11.160;2023-02-25T05:46:19;7.47;;;5.43;;
5704;SDS011;2877;48.238;11.160;2023-02-25T05:48:46;9.83;;;6.40;;
5704;SDS011;2877;48.238;11.160;2023-02-25T05:51:14;9.90;;;6.00;;
5704;SDS011;2877;48.238;11.160;2023-02-25T05:53:42;11.87;;;5.90;;
5704;SDS011;2877;48.238;11.160;2023-02-25T05:56:13;11.67;;;6.33;;
5704;SDS011;2877;48.238;11.160;2023-02-25T05:58:41;13.23;;;6.57;;
5704;SDS011;2877;48.238;11.160;2023-02-25T06:01:07;12.00;;;6.20;;
5704;SDS011;2877;48.238;11.160;2023-02-25T06:03:37;10.00;;;5.40;;
5704;SDS011;2877;48.238;11.160;2023-02-25T06:06:04;12.00;;;6.30;;
5704;SDS011;2877;48.238;11.160;2023-02-25T06:08:30;10.57;;;5.70;;
5704;SDS011;2877;48.238;11.160;2023-02-25T06:10:57;8.57;;;5.70;;
5704;SDS011;2877;48.238;11.160;2023-02-25T06:13:24;11.73;;;6.20;;
5704;SDS011;2877;48.238;11.160;2023-02-25T06:15:50;11.13;;;6.30;;
5704;SDS011;2877;48.238;11.160;2023-02-25T06:18:16;13.00;;;6.40;;
5704;SDS011;2877;48.238;11.160;2023-02-25T06:20:41;10.07;;;6.37;;
5704;SDS011;2877;48.238;11.160;2023-02-25T06:23:07;10.00;;;5.77;;
5704;SDS011;2877;48.238;11.160;2023-02-25T06:25:32;9.53;;;5.60;;
5704;SDS011;2877;48.238;11.160;2023-02-25T06:27:58;10.73;;;6.50;;
5704;SDS011;2877;48.238;11.160;2023-02-25T06:30:25;9.60;;;6.20;;
5704;SDS011;2877;48.238;11.160;2023-02-25T06:32:51;11.23;;;6.23;;
5704;SDS011;2877;48.238;11.160;2023-02-25T06:35:17;7.07;;;4.90;;
5704;SDS011;2877;48.238;11.160;2023-02-25T06:37:47;9.27;;;4.90;;
5704;SDS011;2877;48.238;11.160;2023-02-25T06:40:22;9.63;;;5.37;;
5704;SDS011;2877;48.238;11.160;2023-02-25T06:42:48;10.70;;;5.10;;
5704;SDS011;2877;48.238;11.160;2023-02-25T06:45:13;10.87;;;6.13;;
5704;SDS011;2877;48.238;11.160;2023-02-25T06:47:39;10.37;;;6.27;;
5704;SDS011;2877;48.238;11.160;2023-02-25T06:50:05;11.63;;;5.67;;
5704;SDS011;2877;48.238;11.160;2023-02-25T06:52:31;8.17;;;5.27;;
5704;SDS011;2877;48.238;11.160;2023-02-25T06:54:57;7.40;;;5.07;;
5704;SDS011;2877;48.238;11.160;2023-02-25T06:57:22;6.13;;;4.47;;
5704;SDS011;2877;48.238;11.160;2023-02-25T06:59:48;7.83;;;5.50;;
5704;SDS011;2877;48.238;11.160;2023-02-25T07:02:13;8.83;;;5.10;;
5704;SDS011;2877;48.238;11.160;2023-02-25T07:04:39;7.57;;;3.93;;
5704;SDS011;2877;48.238;11.160;2023-02-25T07:07:05;8.10;;;4.73;;
5704;SDS011;2877;48.238;11.160;2023-02-25T07:09:30;7.33;;;4.50;;
5704;SDS011;2877;48.238;11.160;2023-02-25T07:11:56;10.50;;;4.97;;
5704;SDS011;2877;48.238;11.160;2023-02-25T07:14:22;7.30;;;5.00;;
5704;SDS011;2877;48.238;11.160;2023-02-25T07:16:48;6.80;;;4.77;;
5704;SDS011;2877;48.238;11.160;2023-02-25T07:19:14;6.93;;;4.80;;
5704;SDS011;2877;48.238;11.160;2023-02-25T07:21:40;5.37;;;4.00;;
5704;SDS011;2877;48.238;11.160;2023-02-25T07:24:06;5.73;;;3.90;;
5704;SDS011;2877;48.238;11.160;2023-02-25T07:26:31;5.40;;;3.67;;
5704;SDS011;2877;48.238;11.160;2023-02-25T07:28:57;8.43;;;3.60;;
5704;SDS011;2877;48.238;11.160;2023-02-25T07:31:24;6.27;;;3.77;;
5704;SDS011;2877;48.238;11.160;2023-02-25T07:33:50;6.13;;;2.80;;
5704;SDS011;2877;48.238;11.160;2023-02-25T07:36:17;6.47;;;4.10;;
5704;SDS011;2877;48.238;11.160;2023-02-25T07:38:43;7.97;;;4.00;;
5704;SDS011;2877;48.238;11.160;2023-02-25T07:41:11;4.57;;;3.47;;
5704;SDS011;2877;48.238;11.160;2023-02-25T07:43:38;10.63;;;3.53;;
5704;SDS011;2877;48.238;11.160;2023-02-25T07:46:04;4.07;;;3.13;;
5704;SDS011;2877;48.238;11.160;2023-02-25T07:48:30;3.40;;;2.00;;
5704;SDS011;2877;48.238;11.160;2023-02-25T07:51:03;8.97;;;3.33;;
5704;SDS011;2877;48.238;11.160;2023-02-25T07:53:33;6.23;;;3.07;;
5704;SDS011;2877;48.238;11.160;2023-02-25T07:55:58;3.97;;;1.90;;
5704;SDS011;2877;48.238;11.160;2023-02-25T07:58:24;3.97;;;2.47;;
5704;SDS011;2877;48.238;11.160;2023-02-25T08:00:52;6.50;;;3.00;;
5704;SDS011;2877;48.238;11.160;2023-02-25T08:03:18;5.40;;;3.30;;
5704;SDS011;2877;48.238;11.160;2023-02-25T08:05:44;4.97;;;2.97;;
5704;SDS011;2877;48.238;11.160;2023-02-25T08:08:13;6.23;;;2.93;;
5704;SDS011;2877;48.238;11.160;2023-02-25T08:10:39;5.63;;;3.27;;
5704;SDS011;2877;48.238;11.160;2023-02-25T08:13:04;5.70;;;2.63;;
5704;SDS011;2877;48.238;11.160;2023-02-25T08:15:30;6.33;;;3.27;;
5704;SDS011;2877;48.238;11.160;2023-02-25T08:17:56;6.17;;;3.30;;
5704;SDS011;2877;48.238;11.160;2023-02-25T08:20:21;6.13;;;2.63;;
5704;SDS011;2877;48.238;11.160;2023-02-25T08:22:47;6.83;;;2.53;;
5704;SDS011;2877;48.238;11.160;2023-02-25T08:25:12;5.67;;;2.80;;
5704;SDS011;2877;48.238;11.160;2023-02-25T08:27:38;4.90;;;2.33;;
5704;SDS011;2877;48.238;11.160;2023-02-25T08:30:04;4.83;;;2.90;;
5704;SDS011;2877;48.238;11.160;2023-02-25T08:32:34;3.67;;;2.30;;
5704;SDS011;2877;48.238;11.160;2023-02-25T08:35:00;4.53;;;2.37;;
5704;SDS011;2877;48.238;11.160;2023-02-25T08:37:26;3.70;;;2.27;;
5704;SDS011;2877;48.238;11.160;2023-02-25T08:39:54;5.53;;;3.33;;
5704;SDS011;2877;48.238;11.160;2023-02-25T08:42:21;2.87;;;1.97;;
5704;SDS011;2877;48.238;11.160;2023-02-25T08:44:47;2.67;;;1.80;;
5704;SDS011;2877;48.238;11.160;2023-02-25T08:47:14;4.70;;;2.27;;
5704;SDS011;2877;48.238;11.160;2023-02-25T08:49:40;1.57;;;1.47;;
5704;SDS011;2877;48.238;11.160;2023-02-25T08:52:09;2.40;;;1.63;;
5704;SDS011;2877;48.238;11.160;2023-02-25T08:54:36;3.93;;;2.20;;
5704;SDS011;2877;48.238;11.160;2023-02-25T08:57:02;1.30;;;1.20;;
5704;SDS011;2877;48.238;11.160;2023-02-25T08:59:29;1.97;;;1.77;;
5704;SDS011;2877;48.238;11.160;2023-02-25T09:01:59;3.13;;;1.87;;
5704;SDS011;2877;48.238;11.160;2023-02-25T09:04:30;6.00;;;3.10;;
5704;SDS011;2877;48.238;11.160;2023-02-25T09:06:57;3.63;;;2.47;;
5704;SDS011;2877;48.238;11.160;2023-02-25T09:09:26;6.70;;;1.83;;
5704;SDS011;2877;48.238;11.160;2023-02-25T09:11:52;3.03;;;1.70;;
5704;SDS011;2877;48.238;11.160;2023-02-25T09:14:18;3.27;;;1.80;;
5704;SDS011;2877;48.238;11.160;2023-02-25T09:16:45;2.30;;;1.63;;
5704;SDS011;2877;48.238;11.160;2023-02-25T09:19:11;3.90;;;2.23;;
5704;SDS011;2877;48.238;11.160;2023-02-25T09:21:39;4.07;;;2.00;;
5704;SDS011;2877;48.238;11.160;2023-02-25T09:24:05;2.97;;;1.90;;
5704;SDS011;2877;48.238;11.160;2023-02-25T09:26:31;1.60;;;0.90;;
5704;SDS011;2877;48.238;11.160;2023-02-25T09:29:01;4.00;;;1.57;;
5704;SDS011;2877;48.238;11.160;2023-02-25T09:31:28;6.67;;;1.60;;
5704;SDS011;2877;48.238;11.160;2023-02-25T09:33:54;1.27;;;1.17;;
5704;SDS011;2877;48.238;11.160;2023-02-25T09:36:20;1.60;;;1.20;;
5704;SDS011;2877;48.238;11.160;2023-02-25T09:38:46;1.67;;;1.30;;
5704;SDS011;2877;48.238;11.160;2023-02-25T09:41:16;4.50;;;1.17;;
5704;SDS011;2877;48.238;11.160;2023-02-25T09:43:59;1.00;;;0.90;;
5704;SDS011;2877;48.238;11.160;2023-02-25T09:46:31;4.17;;;1.07;;
5704;SDS011;2877;48.238;11.160;2023-02-25T09:49:02;1.67;;;1.00;;
5704;SDS011;2877;48.238;11.160;2023-02-25T09:51:55;1.43;;;0.87;;
5704;SDS011;2877;48.238;11.160;2023-02-25T09:54:29;1.60;;;1.43;;
5704;SDS011;2877;48.238;11.160;2023-02-25T09:57:01;2.23;;;1.30;;
5704;SDS011;2877;48.238;11.160;2023-02-25T09:59:30;1.60;;;1.00;;
5704;SDS011;2877;48.238;11.160;2023-02-25T10:02:57;1.67;;;1.07;;
5704;SDS011;2877;48.238;11.160;2023-02-25T10:07:47;3.33;;;1.10;;
5704;SDS011;2877;48.238;11.160;2023-02-25T10:10:19;1.53;;;1.10;;
5704;SDS011;2877;48.238;11.160;2023-02-25T10:16:09;1.47;;;0.90;;
5704;SDS011;2877;48.238;11.160;2023-02-25T10:27:19;3.83;;;1.00;;
5704;SDS011;2877;48.238;11.160;2023-02-25T10:29:51;1.20;;;1.10;;
5704;SDS011;2877;48.238;11.160;2023-02-25T10:32:22;2.30;;;0.87;;
5704;SDS011;2877;48.238;11.160;2023-02-25T10:34:50;3.13;;;1.03;;
5704;SDS011;2877;48.238;11.160;2023-02-25T10:37:24;1.70;;;0.70;;
5704;SDS011;2877;48.238;11.160;2023-02-25T10:39:56;0.77;;;0.73;;
5704;SDS011;2877;48.238;11.160;2023-02-25T10:42:23;1.23;;;0.83;;
5704;SDS011;2877;48.238;11.160;2023-02-25T10:44:50;1.90;;;0.90;;
5704;SDS011;2877;48.238;11.160;2023-02-25T10:47:31;0.80;;;0.80;;
5704;SDS011;2877;48.238;11.160;2023-02-25T10:52:52;3.70;;;0.90;;
5704;SDS011;2877;48.238;11.160;2023-02-25T10:58:00;2.47;;;0.80;;
5704;SDS011;2877;48.238;11.160;2023-02-25T11:00:28;0.50;;;0.50;;
5704;SDS011;2877;48.238;11.160;2023-02-25T11:02:56;1.33;;;0.60;;
5704;SDS011;2877;48.238;11.160;2023-02-25T11:05:43;0.90;;;0.63;;
5704;SDS011;2877;48.238;11.160;2023-02-25T11:10:58;3.33;;;0.77;;
5704;SDS011;2877;48.238;11.160;2023-02-25T11:13:40;2.03;;;0.80;;
5704;SDS011;2877;48.238;11.160;2023-02-25T11:16:10;1.27;;;1.07;;
5704;SDS011;2877;48.238;11.160;2023-02-25T11:18:37;1.90;;;0.90;;
5704;SDS011;2877;48.238;11.160;2023-02-25T11:21:06;1.23;;;0.73;;
5704;SDS011;2877;48.238;11.160;2023-02-25T11:23:38;0.57;;;0.57;;
5704;SDS011;2877;48.238;11.160;2023-02-25T11:26:12;2.40;;;0.77;;
5704;SDS011;2877;48.238;11.160;2023-02-25T11:28:51;0.57;;;0.57;;
5704;SDS011;2877;48.238;11.160;2023-02-25T11:31:18;1.47;;;0.80;;
5704;SDS011;2877;48.238;11.160;2023-02-25T11:33:49;1.63;;;0.83;;
5704;SDS011;2877;48.238;11.160;2023-02-25T11:36:21;2.50;;;0.90;;
5704;SDS011;2877;48.238;11.160;2023-02-25T11:38:48;0.77;;;0.70;;
5704;SDS011;2877;48.238;11.160;2023-02-25T11:41:22;2.63;;;0.80;;
5704;SDS011;2877;48.238;11.160;2023-02-25T11:43:48;1.93;;;0.70;;
5704;SDS011;2877;48.238;11.160;2023-02-25T11:46:21;0.70;;;0.70;;
5704;SDS011;2877;48.238;11.160;2023-02-25T11:49:26;2.63;;;0.70;;
5704;SDS011;2877;48.238;11.160;2023-02-25T11:51:54;1.00;;;0.60;;
5704;SDS011;2877;48.238;11.160;2023-02-25T11:54:32;0.87;;;0.80;;
5704;SDS011;2877;48.238;11.160;2023-02-25T11:57:17;0.73;;;0.53;;
5704;SDS011;2877;48.238;11.160;2023-02-25T12:18:47;1.10;;;1.00;;
5704;SDS011;2877;48.238;11.160;2023-02-25T12:21:37;0.90;;;0.77;;
5704;SDS011;2877;48.238;11.160;2023-02-25T12:34:58;0.73;;;0.73;;
5704;SDS011;2877;48.238;11.160;2023-02-25T12:40:25;0.50;;;0.50;;
5704;SDS011;2877;48.238;11.160;2023-02-25T12:43:27;0.70;;;0.70;;
5704;SDS011;2877;48.238;11.160;2023-02-25T12:54:07;2.53;;;0.93;;
5704;SDS011;2877;48.238;11.160;2023-02-25T12:59:31;0.40;;;0.40;;
5704;SDS011;2877;48.238;11.160;2023-02-25T13:10:20;1.13;;;0.70;;
5704;SDS011;2877;48.238;11.160;2023-02-25T13:13:13;1.50;;;0.43;;
5704;SDS011;2877;48.238;11.160;2023-02-25T13:21:51;1.50;;;0.70;;
5704;SDS011;2877;48.238;11.160;2023-02-25T13:24:47;0.70;;;0.50;;
5704;SDS011;2877;48.238;11.160;2023-02-25T13:49:50;1.23;;;1.13;;
5704;SDS011;2877;48.238;11.160;2023-02-25T13:55:26;0.67;;;0.67;;
5704;SDS011;2877;48.238;11.160;2023-02-25T13:57:57;1.07;;;1.00;;
5704;SDS011;2877;48.238;11.160;2023-02-25T14:00:50;1.53;;;1.03;;
5704;SDS011;2877;48.238;11.160;2023-02-25T14:03:47;0.63;;;0.63;;
5704;SDS011;2877;48.238;11.160;2023-02-25T14:15:07;0.73;;;0.63;;
5704;SDS011;2877;48.238;11.160;2023-02-25T14:23:37;2.57;;;0.93;;
5704;SDS011;2877;48.238;11.160;2023-02-25T14:26:21;1.40;;;0.83;;
5704;SDS011;2877;48.238;11.160;2023-02-25T14:31:37;1.23;;;0.70;;
5704;SDS011;2877;48.238;11.160;2023-02-25T14:43:00;0.60;;;0.60;;
5704;SDS011;2877;48.238;11.160;2023-02-25T14:48:13;0.80;;;0.80;;
5704;SDS011;2877;48.238;11.160;2023-02-25T14:50:53;0.60;;;0.60;;
5704;SDS011;2877;48.238;11.160;2023-02-25T14:56:18;0.40;;;0.40;;
5704;SDS011;2877;48.238;11.160;2023-02-25T15:10:17;0.60;;;0.60;;
5704;SDS011;2877;48.238;11.160;2023-02-25T15:13:22;1.17;;;0.80;;
5704;SDS011;2877;48.238;11.160;2023-02-25T15:21:45;0.57;;;0.57;;
5704;SDS011;2877;48.238;11.160;2023-02-25T15:26:47;0.50;;;0.50;;
5704;SDS011;2877;48.238;11.160;2023-02-25T15:29:47;2.90;;;0.60;;
5704;SDS011;2877;48.238;11.160;2023-02-25T15:32:27;0.70;;;0.60;;
5704;SDS011;2877;48.238;11.160;2023-02-25T15:37:22;0.63;;;0.50;;
5704;SDS011;2877;48.238;11.160;2023-02-25T15:39:49;0.53;;;0.53;;
5704;SDS011;2877;48.238;11.160;2023-02-25T15:42:16;0.90;;;0.60;;
5704;SDS011;2877;48.238;11.160;2023-02-25T15:45:33;0.70;;;0.70;;
5704;SDS011;2877;48.238;11.160;2023-02-25T15:56:44;1.07;;;0.60;;
5704;SDS011;2877;48.238;11.160;2023-02-25T16:00:57;0.80;;;0.63;;
5704;SDS011;2877;48.238;11.160;2023-02-25T16:06:05;3.03;;;0.97;;
5704;SDS011;2877;48.238;11.160;2023-02-25T16:11:29;0.70;;;0.70;;
5704;SDS011;2877;48.238;11.160;2023-02-25T16:14:07;1.90;;;0.60;;
5704;SDS011;2877;48.238;11.160;2023-02-25T16:17:10;0.57;;;0.40;;
5704;SDS011;2877;48.238;11.160;2023-02-25T16:19:41;0.73;;;0.60;;
5704;SDS011;2877;48.238;11.160;2023-02-25T16:24:39;1.77;;;1.30;;
5704;SDS011;2877;48.238;11.160;2023-02-25T16:33:02;0.93;;;0.90;;
5704;SDS011;2877;48.238;11.160;2023-02-25T16:35:43;0.90;;;0.90;;
5704;SDS011;2877;48.238;11.160;2023-02-25T16:38:29;3.13;;;1.63;;
5704;SDS011;2877;48.238;11.160;2023-02-25T16:41:06;1.27;;;1.17;;
5704;SDS011;2877;48.238;11.160;2023-02-25T16:43:35;0.90;;;0.90;;
5704;SDS011;2877;48.238;11.160;2023-02-25T16:46:02;1.63;;;0.87;;
5704;SDS011;2877;48.238;11.160;2023-02-25T16:48:35;1.33;;;1.13;;
5704;SDS011;2877;48.238;11.160;2023-02-25T16:51:09;0.80;;;0.80;;
5704;SDS011;2877;48.238;11.160;2023-02-25T16:53:41;2.77;;;1.30;;
5704;SDS011;2877;48.238;11.160;2023-02-25T16:56:15;1.37;;;1.03;;
5704;SDS011;2877;48.238;11.160;2023-02-25T16:59:02;1.30;;;0.90;;
5704;SDS011;2877;48.238;11.160;2023-02-25T17:01:35;1.03;;;0.90;;
5704;SDS011;2877;48.238;11.160;2023-02-25T17:07:03;1.10;;;0.93;;
5704;SDS011;2877;48.238;11.160;2023-02-25T17:09:31;7.97;;;0.87;;
5704;SDS011;2877;48.238;11.160;2023-02-25T17:11:57;1.63;;;1.53;;
5704;SDS011;2877;48.238;11.160;2023-02-25T17:14:27;1.90;;;1.23;;
5704;SDS011;2877;48.238;11.160;2023-02-25T17:16:54;2.13;;;1.93;;
5704;SDS011;2877;48.238;11.160;2023-02-25T17:19:21;4.83;;;1.13;;
5704;SDS011;2877;48.238;11.160;2023-02-25T17:21:57;1.10;;;1.10;;
5704;SDS011;2877;48.238;11.160;2023-02-25T17:24:25;1.17;;;0.90;;
5704;SDS011;2877;48.238;11.160;2023-02-25T17:26:54;3.50;;;1.70;;
5704;SDS011;2877;48.238;11.160;2023-02-25T17:29:20;0.80;;;0.80;;
5704;SDS011;2877;48.238;11.160;2023-02-25T17:31:50;2.20;;;1.10;;
5704;SDS011;2877;48.238;11.160;2023-02-25T17:37:13;1.20;;;1.10;;
5704;SDS011;2877;48.238;11.160;2023-02-25T17:39:39;1.83;;;1.20;;
5704;SDS011;2877;48.238;11.160;2023-02-25T17:45:35;0.77;;;0.77;;
5704;SDS011;2877;48.238;11.160;2023-02-25T17:48:42;10.40;;;2.97;;
5704;SDS011;2877;48.238;11.160;2023-02-25T17:51:07;2.60;;;0.90;;
5704;SDS011;2877;48.238;11.160;2023-02-25T17:53:38;1.27;;;1.00;;
5704;SDS011;2877;48.238;11.160;2023-02-25T17:56:16;0.80;;;0.80;;
5704;SDS011;2877;48.238;11.160;2023-02-25T17:58:48;0.87;;;0.87;;
5704;SDS011;2877;48.238;11.160;2023-02-25T18:01:25;3.50;;;1.10;;
5704;SDS011;2877;48.238;11.160;2023-02-25T18:03:54;2.10;;;1.60;;
5704;SDS011;2877;48.238;11.160;2023-02-25T18:06:41;0.70;;;0.70;;
5704;SDS011;2877;48.238;11.160;2023-02-25T18:09:28;0.83;;;0.83;;
5704;SDS011;2877;48.238;11.160;2023-02-25T18:12:00;1.73;;;1.63;;
5704;SDS011;2877;48.238;11.160;2023-02-25T18:14:35;1.90;;;1.60;;
5704;SDS011;2877;48.238;11.160;2023-02-25T18:17:20;2.47;;;1.97;;
5704;SDS011;2877;48.238;11.160;2023-02-25T18:19:49;3.57;;;2.47;;
5704;SDS011;2877;48.238;11.160;2023-02-25T18:25:07;1.17;;;1.17;;
5704;SDS011;2877;48.238;11.160;2023-02-25T18:27:57;2.63;;;1.43;;
5704;SDS011;2877;48.238;11.160;2023-02-25T18:30:24;3.00;;;1.90;;
5704;SDS011;2877;48.238;11.160;2023-02-25T18:32:51;0.90;;;0.90;;
5704;SDS011;2877;48.238;11.160;2023-02-25T18:35:18;1.43;;;1.43;;
5704;SDS011;2877;48.238;11.160;2023-02-25T18:37:45;4.10;;;1.10;;
5704;SDS011;2877;48.238;11.160;2023-02-25T18:40:32;1.17;;;1.07;;
5704;SDS011;2877;48.238;11.160;2023-02-25T18:43:00;1.03;;;1.03;;
5704;SDS011;2877;48.238;11.160;2023-02-25T18:45:27;0.70;;;0.70;;
5704;SDS011;2877;48.238;11.160;2023-02-25T18:47:55;1.60;;;0.90;;
5704;SDS011;2877;48.238;11.160;2023-02-25T18:50:21;3.50;;;3.20;;
5704;SDS011;2877;48.238;11.160;2023-02-25T18:52:48;2.50;;;2.30;;